sensor_id;sensor_type;location;lat;lon;timestamp;pressure;altitude;pressure_sealevel;temperature;humidity
12247;BME280;6186;52.022;4.692;2022-11-21T00:00:15;100718.88;;;4.83;100.00
12247;BME280;6186;52.022;4.692;2022-11-21T00:02:40;100731.03;;;4.86;100.00
12247;BME280;6186;52.022;4.692;2022-11-21T00:05:06;100726.69;;;4.89;100.00
12247;BME280;6186;52.022;4.692;2022-11-21T00:07:31;100737.97;;;4.91;100.00
12247;BME280;6186;52.022;4.692;2022-11-21T00:09:56;100743.16;;;4.94;100.00
12247;BME280;6186;52.022;4.692;2022-11-21T00:12:22;100753.59;;;4.97;100.00
12247;BME280;6186;52.022;4.692;2022-11-21T00:14:47;100756.19;;;4.99;100.00
12247;BME280;6186;52.022;4.692;2022-11-21T00:17:12;100758.78;;;5.00;100.00
12247;BME280;6186;52.022;4.692;2022-11-21T00:19:38;100755.31;;;5.01;100.00
12247;BME280;6186;52.022;4.692;2022-11-21T00:22:03;100737.09;;;4.91;100.00
12247;BME280;6186;52.022;4.692;2022-11-21T00:24:29;100745.75;;;5.03;100.00
12247;BME280;6186;52.022;4.692;2022-11-21T00:26:54;100737.06;;;5.01;100.00
12247;BME280;6186;52.022;4.692;2022-11-21T00:29:19;100736.19;;;5.02;100.00
12247;BME280;6186;52.022;4.692;2022-11-21T00:31:45;100741.41;;;5.02;100.00
12247;BME280;6186;52.022;4.692;2022-11-21T00:34:10;100739.66;;;5.00;100.00
12247;BME280;6186;52.022;4.692;2022-11-21T00:36:35;100748.34;;;5.02;100.00
12247;BME280;6186;52.022;4.692;2022-11-21T00:39:01;100741.41;;;5.01;100.00
12247;BME280;6186;52.022;4.692;2022-11-21T00:41:26;100745.75;;;5.00;100.00
12247;BME280;6186;52.022;4.692;2022-11-21T00:43:51;100750.97;;;4.99;100.00
12247;BME280;6186;52.022;4.692;2022-11-21T00:46:16;100750.13;;;4.97;100.00
12247;BME280;6186;52.022;4.692;2022-11-21T00:48:42;100744.91;;;4.95;100.00
12247;BME280;6186;52.022;4.692;2022-11-21T00:51:07;100745.78;;;4.94;100.00
12247;BME280;6186;52.022;4.692;2022-11-21T00:53:32;100744.94;;;4.94;100.00
12247;BME280;6186;52.022;4.692;2022-11-21T00:55:58;100750.16;;;4.94;100.00
12247;BME280;6186;52.022;4.692;2022-11-21T00:58:23;100737.97;;;4.91;100.00
12247;BME280;6186;52.022;4.692;2022-11-21T01:00:48;100747.53;;;4.89;100.00
12247;BME280;6186;52.022;4.692;2022-11-21T01:03:14;100734.53;;;4.86;100.00
12247;BME280;6186;52.022;4.692;2022-11-21T01:05:39;100737.13;;;4.85;100.00
12247;BME280;6186;52.022;4.692;2022-11-21T01:08:05;100725.88;;;4.76;100.00
12247;BME280;6186;52.022;4.692;2022-11-21T01:10:30;100725.84;;;4.75;100.00
12247;BME280;6186;52.022;4.692;2022-11-21T01:12:56;100726.75;;;4.74;100.00
12247;BME280;6186;52.022;4.692;2022-11-21T01:15:21;100725.00;;;4.76;100.00
12247;BME280;6186;52.022;4.692;2022-11-21T01:17:46;100723.25;;;4.75;100.00
12247;BME280;6186;52.022;4.692;2022-11-21T01:20:12;100717.19;;;4.74;100.00
12247;BME280;6186;52.022;4.692;2022-11-21T01:22:37;100712.84;;;4.72;100.00
12247;BME280;6186;52.022;4.692;2022-11-21T01:25:02;100716.28;;;4.77;100.00
12247;BME280;6186;52.022;4.692;2022-11-21T01:27:28;100706.72;;;4.77;100.00
12247;BME280;6186;52.022;4.692;2022-11-21T01:29:53;100725.00;;;4.81;100.00
12247;BME280;6186;52.022;4.692;2022-11-21T01:32:18;100723.22;;;4.81;100.00
12247;BME280;6186;52.022;4.692;2022-11-21T01:34:44;100726.72;;;4.80;100.00
12247;BME280;6186;52.022;4.692;2022-11-21T01:37:09;100734.53;;;4.77;100.00
12247;BME280;6186;52.022;4.692;2022-11-21T01:39:34;100743.22;;;4.79;100.00
12247;BME280;6186;52.022;4.692;2022-11-21T01:41:59;100739.78;;;4.78;100.00
12247;BME280;6186;52.022;4.692;2022-11-21T01:44:45;100740.63;;;4.79;100.00
12247;BME280;6186;52.022;4.692;2022-11-21T01:47:10;100731.03;;;4.81;100.00
12247;BME280;6186;52.022;4.692;2022-11-21T01:49:37;100709.31;;;4.79;100.00
12247;BME280;6186;52.022;4.692;2022-11-21T01:55:02;100718.88;;;4.82;100.00
12247;BME280;6186;52.022;4.692;2022-11-21T01:57:42;100717.16;;;4.79;100.00
12247;BME280;6186;52.022;4.692;2022-11-21T02:00:14;100726.72;;;4.77;100.00
12247;BME280;6186;52.022;4.692;2022-11-21T02:02:45;100724.13;;;4.74;100.00
12247;BME280;6186;52.022;4.692;2022-11-21T02:05:16;100714.59;;;4.73;100.00
12247;BME280;6186;52.022;4.692;2022-11-21T02:07:45;100710.22;;;4.73;100.00
12247;BME280;6186;52.022;4.692;2022-11-21T02:10:11;100709.38;;;4.74;100.00
12247;BME280;6186;52.022;4.692;2022-11-21T02:12:41;100701.56;;;4.73;100.00
12247;BME280;6186;52.022;4.692;2022-11-21T02:15:09;100713.72;;;4.72;100.00
12247;BME280;6186;52.022;4.692;2022-11-21T02:17:37;100698.94;;;4.68;100.00
12247;BME280;6186;52.022;4.692;2022-11-21T02:20:08;100698.06;;;4.68;100.00
12247;BME280;6186;52.022;4.692;2022-11-21T02:27:24;100704.16;;;4.64;100.00
12247;BME280;6186;52.022;4.692;2022-11-21T02:29:49;100715.47;;;4.64;100.00
12247;BME280;6186;52.022;4.692;2022-11-21T02:32:22;100712.00;;;4.61;100.00
12247;BME280;6186;52.022;4.692;2022-11-21T02:34:48;100723.25;;;4.67;100.00
12247;BME280;6186;52.022;4.692;2022-11-21T02:37:13;100726.75;;;4.68;100.00
12247;BME280;6186;52.022;4.692;2022-11-21T02:39:39;100738.06;;;4.68;100.00
12247;BME280;6186;52.022;4.692;2022-11-21T02:42:23;100731.09;;;4.72;100.00
12247;BME280;6186;52.022;4.692;2022-11-21T02:45:08;100725.88;;;4.72;100.00
12247;BME280;6186;52.022;4.692;2022-11-21T02:47:37;100714.59;;;4.73;100.00
12247;BME280;6186;52.022;4.692;2022-11-21T02:50:18;100702.44;;;4.69;100.00
12247;BME280;6186;52.022;4.692;2022-11-21T02:52:44;100696.34;;;4.73;100.00
12247;BME280;6186;52.022;4.692;2022-11-21T02:55:09;100701.53;;;4.71;100.00
12247;BME280;6186;52.022;4.692;2022-11-21T02:57:38;100705.06;;;4.61;100.00
12247;BME280;6186;52.022;4.692;2022-11-21T03:00:05;100718.06;;;4.66;100.00
12247;BME280;6186;52.022;4.692;2022-11-21T03:02:30;100705.91;;;4.66;100.00
12247;BME280;6186;52.022;4.692;2022-11-21T03:04:55;100706.78;;;4.65;100.00
12247;BME280;6186;52.022;4.692;2022-11-21T03:07:21;100702.44;;;4.64;100.00
12247;BME280;6186;52.022;4.692;2022-11-21T03:09:46;100704.16;;;4.64;100.00
12247;BME280;6186;52.022;4.692;2022-11-21T03:12:11;100686.81;;;4.57;100.00
12247;BME280;6186;52.022;4.692;2022-11-21T03:14:37;100708.53;;;4.65;100.00
12247;BME280;6186;52.022;4.692;2022-11-21T03:17:03;100701.56;;;4.67;100.00
12247;BME280;6186;52.022;4.692;2022-11-21T03:19:28;100686.78;;;4.66;100.00
12247;BME280;6186;52.022;4.692;2022-11-21T03:21:54;100688.53;;;4.62;100.00
12247;BME280;6186;52.022;4.692;2022-11-21T03:24:20;100692.03;;;4.63;100.00
12247;BME280;6186;52.022;4.692;2022-11-21T03:26:46;100699.81;;;4.66;100.00
12247;BME280;6186;52.022;4.692;2022-11-21T03:29:11;100699.84;;;4.64;100.00
12247;BME280;6186;52.022;4.692;2022-11-21T03:31:36;100688.56;;;4.59;100.00
12247;BME280;6186;52.022;4.692;2022-11-21T03:34:02;100683.38;;;4.49;100.00
12247;BME280;6186;52.022;4.692;2022-11-21T03:36:27;100689.47;;;4.48;100.00
12247;BME280;6186;52.022;4.692;2022-11-21T03:38:56;100688.59;;;4.46;100.00
12247;BME280;6186;52.022;4.692;2022-11-21T03:41:22;100686.00;;;4.46;100.00
12247;BME280;6186;52.022;4.692;2022-11-21T03:44:07;100684.25;;;4.43;100.00
12247;BME280;6186;52.022;4.692;2022-11-21T03:46:38;100678.19;;;4.40;100.00
12247;BME280;6186;52.022;4.692;2022-11-21T03:49:04;100690.34;;;4.42;100.00
12247;BME280;6186;52.022;4.692;2022-11-21T03:51:31;100678.22;;;4.37;100.00
12247;BME280;6186;52.022;4.692;2022-11-21T03:53:56;100683.41;;;4.40;100.00
12247;BME280;6186;52.022;4.692;2022-11-21T03:56:22;100679.94;;;4.39;100.00
12247;BME280;6186;52.022;4.692;2022-11-21T03:58:48;100680.81;;;4.40;100.00
12247;BME280;6186;52.022;4.692;2022-11-21T04:01:13;100683.41;;;4.40;100.00
12247;BME280;6186;52.022;4.692;2022-11-21T04:03:41;100682.56;;;4.41;100.00
12247;BME280;6186;52.022;4.692;2022-11-21T04:06:07;100669.50;;;4.38;100.00
12247;BME280;6186;52.022;4.692;2022-11-21T04:08:32;100680.78;;;4.41;100.00
12247;BME280;6186;52.022;4.692;2022-11-21T04:10:57;100674.72;;;4.38;100.00
12247;BME280;6186;52.022;4.692;2022-11-21T04:13:23;100678.19;;;4.40;100.00
12247;BME280;6186;52.022;4.692;2022-11-21T04:15:48;100668.66;;;4.40;100.00
12247;BME280;6186;52.022;4.692;2022-11-21T04:18:14;100670.41;;;4.37;100.00
12247;BME280;6186;52.022;4.692;2022-11-21T04:20:39;100659.09;;;4.32;100.00
12247;BME280;6186;52.022;4.692;2022-11-21T04:23:05;100665.19;;;4.34;100.00
12247;BME280;6186;52.022;4.692;2022-11-21T04:25:31;100666.91;;;4.32;100.00
12247;BME280;6186;52.022;4.692;2022-11-21T04:27:58;100669.53;;;4.32;100.00
12247;BME280;6186;52.022;4.692;2022-11-21T04:30:23;100663.44;;;4.34;100.00
12247;BME280;6186;52.022;4.692;2022-11-21T04:32:50;100655.63;;;4.34;100.00
12247;BME280;6186;52.022;4.692;2022-11-21T04:35:15;100651.28;;;4.35;100.00
12247;BME280;6186;52.022;4.692;2022-11-21T04:37:41;100646.06;;;4.38;100.00
12247;BME280;6186;52.022;4.692;2022-11-21T04:40:07;100652.16;;;4.34;100.00
12247;BME280;6186;52.022;4.692;2022-11-21T04:42:32;100653.03;;;4.30;100.00
12247;BME280;6186;52.022;4.692;2022-11-21T04:44:57;100654.78;;;4.28;100.00
12247;BME280;6186;52.022;4.692;2022-11-21T04:47:23;100649.56;;;4.29;100.00
12247;BME280;6186;52.022;4.692;2022-11-21T04:49:48;100634.81;;;4.27;100.00
12247;BME280;6186;52.022;4.692;2022-11-21T04:52:13;100634.84;;;4.24;100.00
12247;BME280;6186;52.022;4.692;2022-11-21T04:54:39;100635.69;;;4.23;100.00
12247;BME280;6186;52.022;4.692;2022-11-21T04:57:04;100627.03;;;4.24;100.00
12247;BME280;6186;52.022;4.692;2022-11-21T04:59:29;100626.13;;;4.26;100.00
12247;BME280;6186;52.022;4.692;2022-11-21T05:01:55;100620.06;;;4.27;100.00
12247;BME280;6186;52.022;4.692;2022-11-21T05:04:20;100613.97;;;4.27;100.00
12247;BME280;6186;52.022;4.692;2022-11-21T05:06:45;100614.00;;;4.25;100.00
12247;BME280;6186;52.022;4.692;2022-11-21T05:09:10;100611.38;;;4.25;100.00
12247;BME280;6186;52.022;4.692;2022-11-21T05:11:36;100612.25;;;4.23;100.00
12247;BME280;6186;52.022;4.692;2022-11-21T05:14:19;100616.59;;;4.19;100.00
12247;BME280;6186;52.022;4.692;2022-11-21T05:16:45;100614.03;;;4.16;100.00
12247;BME280;6186;52.022;4.692;2022-11-21T05:19:10;100616.63;;;4.16;100.00
12247;BME280;6186;52.022;4.692;2022-11-21T05:21:35;100605.34;;;4.16;100.00
12247;BME280;6186;52.022;4.692;2022-11-21T05:24:01;100597.53;;;4.14;100.00
12247;BME280;6186;52.022;4.692;2022-11-21T05:26:26;100594.94;;;4.14;100.00
12247;BME280;6186;52.022;4.692;2022-11-21T05:28:51;100583.63;;;4.14;100.00
12247;BME280;6186;52.022;4.692;2022-11-21T05:31:16;100587.09;;;4.16;100.00
12247;BME280;6186;52.022;4.692;2022-11-21T05:33:42;100583.63;;;4.15;100.00
12247;BME280;6186;52.022;4.692;2022-11-21T05:36:07;100576.69;;;4.10;100.00
12247;BME280;6186;52.022;4.692;2022-11-21T05:38:32;100576.72;;;4.07;100.00
12247;BME280;6186;52.022;4.692;2022-11-21T05:40:58;100586.25;;;4.06;100.00
12247;BME280;6186;52.022;4.692;2022-11-21T05:43:23;100578.47;;;4.05;100.00
12247;BME280;6186;52.022;4.692;2022-11-21T05:46:07;100572.38;;;4.06;100.00
12247;BME280;6186;52.022;4.692;2022-11-21T05:48:32;100580.19;;;4.09;100.00
12247;BME280;6186;52.022;4.692;2022-11-21T05:51:00;100578.44;;;4.09;100.00
12247;BME280;6186;52.022;4.692;2022-11-21T05:53:25;100580.16;;;4.12;100.00
12247;BME280;6186;52.022;4.692;2022-11-21T05:55:51;100580.16;;;4.15;100.00
12247;BME280;6186;52.022;4.692;2022-11-21T05:58:16;100572.34;;;4.15;100.00
12247;BME280;6186;52.022;4.692;2022-11-21T06:00:41;100570.59;;;4.17;100.00
12247;BME280;6186;52.022;4.692;2022-11-21T06:03:09;100567.09;;;4.21;100.00
12247;BME280;6186;52.022;4.692;2022-11-21T06:05:59;100564.47;;;4.28;100.00
12247;BME280;6186;52.022;4.692;2022-11-21T06:08:30;100558.38;;;4.28;100.00
12247;BME280;6186;52.022;4.692;2022-11-21T06:10:56;100552.28;;;4.35;100.00
12247;BME280;6186;52.022;4.692;2022-11-21T06:13:21;100554.00;;;4.36;100.00
12247;BME280;6186;52.022;4.692;2022-11-21T06:15:57;100540.19;;;4.25;100.00
12247;BME280;6186;52.022;4.692;2022-11-21T06:18:22;100549.72;;;4.29;100.00
12247;BME280;6186;52.022;4.692;2022-11-21T06:20:48;100545.34;;;4.28;100.00
12247;BME280;6186;52.022;4.692;2022-11-21T06:23:14;100544.53;;;4.26;100.00
12247;BME280;6186;52.022;4.692;2022-11-21T06:25:39;100543.66;;;4.25;100.00
12247;BME280;6186;52.022;4.692;2022-11-21T06:28:04;100545.41;;;4.23;100.00
12247;BME280;6186;52.022;4.692;2022-11-21T06:30:30;100533.22;;;4.22;100.00
12247;BME280;6186;52.022;4.692;2022-11-21T06:32:55;100536.75;;;4.20;100.00
12247;BME280;6186;52.022;4.692;2022-11-21T06:35:20;100528.06;;;4.18;100.00
12247;BME280;6186;52.022;4.692;2022-11-21T06:37:46;100518.50;;;4.20;100.00
12247;BME280;6186;52.022;4.692;2022-11-21T06:40:11;100523.72;;;4.20;100.00
12247;BME280;6186;52.022;4.692;2022-11-21T06:42:37;100519.34;;;4.19;100.00
12247;BME280;6186;52.022;4.692;2022-11-21T06:45:02;100515.03;;;4.18;100.00
12247;BME280;6186;52.022;4.692;2022-11-21T06:47:28;100524.56;;;4.20;100.00
12247;BME280;6186;52.022;4.692;2022-11-21T06:49:53;100528.91;;;4.21;100.00
12247;BME280;6186;52.022;4.692;2022-11-21T06:52:18;100538.47;;;4.24;100.00
12247;BME280;6186;52.022;4.692;2022-11-21T06:54:44;100534.94;;;4.26;100.00
12247;BME280;6186;52.022;4.692;2022-11-21T06:57:09;100532.34;;;4.29;100.00
12247;BME280;6186;52.022;4.692;2022-11-21T06:59:34;100531.44;;;4.32;100.00
12247;BME280;6186;52.022;4.692;2022-11-21T07:02:00;100520.19;;;4.33;100.00
12247;BME280;6186;52.022;4.692;2022-11-21T07:04:25;100514.94;;;4.34;100.00
12247;BME280;6186;52.022;4.692;2022-11-21T07:06:50;100499.34;;;4.33;100.00
12247;BME280;6186;52.022;4.692;2022-11-21T07:09:16;100503.63;;;4.40;100.00
12247;BME280;6186;52.022;4.692;2022-11-21T07:11:41;100501.88;;;4.43;100.00
12247;BME280;6186;52.022;4.692;2022-11-21T07:14:07;100494.06;;;4.42;100.00
12247;BME280;6186;52.022;4.692;2022-11-21T07:16:32;100488.88;;;4.39;100.00
12247;BME280;6186;52.022;4.692;2022-11-21T07:18:58;100491.47;;;4.42;100.00
12247;BME280;6186;52.022;4.692;2022-11-21T07:21:25;100492.34;;;4.41;100.00
12247;BME280;6186;52.022;4.692;2022-11-21T07:23:50;100484.56;;;4.33;100.00
12247;BME280;6186;52.022;4.692;2022-11-21T07:26:15;100496.69;;;4.37;100.00
12247;BME280;6186;52.022;4.692;2022-11-21T07:28:41;100504.50;;;4.39;100.00
12247;BME280;6186;52.022;4.692;2022-11-21T07:31:08;100497.59;;;4.35;100.00
12247;BME280;6186;52.022;4.692;2022-11-21T07:33:33;100501.06;;;4.37;100.00
12247;BME280;6186;52.022;4.692;2022-11-21T07:35:59;100501.03;;;4.40;100.00
12247;BME280;6186;52.022;4.692;2022-11-21T07:38:25;100506.19;;;4.46;100.00
12247;BME280;6186;52.022;4.692;2022-11-21T07:40:50;100494.91;;;4.45;100.00
12247;BME280;6186;52.022;4.692;2022-11-21T07:43:16;100496.59;;;4.51;100.00
12247;BME280;6186;52.022;4.692;2022-11-21T07:45:42;100491.38;;;4.55;100.00
12247;BME280;6186;52.022;4.692;2022-11-21T07:48:08;100490.47;;;4.61;100.00
12247;BME280;6186;52.022;4.692;2022-11-21T07:50:34;100488.69;;;4.64;100.00
12247;BME280;6186;52.022;4.692;2022-11-21T07:53:02;100473.97;;;4.60;100.00
12247;BME280;6186;52.022;4.692;2022-11-21T07:55:28;100483.50;;;4.60;100.00
12247;BME280;6186;52.022;4.692;2022-11-21T07:58:01;100474.81;;;4.65;100.00
12247;BME280;6186;52.022;4.692;2022-11-21T08:00:28;100473.03;;;4.66;100.00
12247;BME280;6186;52.022;4.692;2022-11-21T08:02:54;100470.44;;;4.66;100.00
12247;BME280;6186;52.022;4.692;2022-11-21T08:05:20;100474.78;;;4.67;100.00
12247;BME280;6186;52.022;4.692;2022-11-21T08:07:45;100469.53;;;4.70;100.00
12247;BME280;6186;52.022;4.692;2022-11-21T08:10:11;100448.72;;;4.67;100.00
12247;BME280;6186;52.022;4.692;2022-11-21T08:12:36;100453.00;;;4.75;100.00
12247;BME280;6186;52.022;4.692;2022-11-21T08:15:01;100451.22;;;4.79;100.00
12247;BME280;6186;52.022;4.692;2022-11-21T08:17:29;100448.56;;;4.85;100.00
12247;BME280;6186;52.022;4.692;2022-11-21T08:19:54;100443.34;;;4.87;100.00
12247;BME280;6186;52.022;4.692;2022-11-21T08:22:19;100445.03;;;4.94;100.00
12247;BME280;6186;52.022;4.692;2022-11-21T08:24:45;100443.25;;;4.97;100.00
12247;BME280;6186;52.022;4.692;2022-11-21T08:27:10;100448.44;;;5.00;100.00
12247;BME280;6186;52.022;4.692;2022-11-21T08:29:35;100437.97;;;5.05;100.00
12247;BME280;6186;52.022;4.692;2022-11-21T08:32:01;100431.84;;;5.09;100.00
12247;BME280;6186;52.022;4.692;2022-11-21T08:34:26;100424.00;;;5.10;100.00
12247;BME280;6186;52.022;4.692;2022-11-21T08:36:55;100422.19;;;5.18;100.00
12247;BME280;6186;52.022;4.692;2022-11-21T08:39:20;100430.72;;;5.35;100.00
12247;BME280;6186;52.022;4.692;2022-11-21T08:41:45;100420.94;;;5.54;100.00
12247;BME280;6186;52.022;4.692;2022-11-21T08:44:30;100423.38;;;5.67;100.00
12247;BME280;6186;52.022;4.692;2022-11-21T08:46:56;100424.00;;;5.88;100.00
12247;BME280;6186;52.022;4.692;2022-11-21T08:49:22;100413.47;;;5.95;100.00
12247;BME280;6186;52.022;4.692;2022-11-21T08:51:48;100405.59;;;6.00;100.00
12247;BME280;6186;52.022;4.692;2022-11-21T08:54:15;100412.44;;;6.07;100.00
12247;BME280;6186;52.022;4.692;2022-11-21T08:56:40;100407.19;;;6.08;100.00
12247;BME280;6186;52.022;4.692;2022-11-21T08:59:06;100400.22;;;6.09;100.00
12247;BME280;6186;52.022;4.692;2022-11-21T09:01:31;100401.09;;;6.09;100.00
12247;BME280;6186;52.022;4.692;2022-11-21T09:03:57;100380.31;;;5.99;100.00
12247;BME280;6186;52.022;4.692;2022-11-21T09:06:22;100397.53;;;6.13;100.00
12247;BME280;6186;52.022;4.692;2022-11-21T09:08:47;100388.78;;;6.16;100.00
12247;BME280;6186;52.022;4.692;2022-11-21T09:11:12;100398.25;;;6.24;100.00
12247;BME280;6186;52.022;4.692;2022-11-21T09:13:38;100395.63;;;6.26;100.00
12247;BME280;6186;52.022;4.692;2022-11-21T09:16:03;100386.84;;;6.30;100.00
12247;BME280;6186;52.022;4.692;2022-11-21T09:18:51;100373.69;;;6.34;100.00
12247;BME280;6186;52.022;4.692;2022-11-21T09:21:18;100370.16;;;6.38;100.00
12247;BME280;6186;52.022;4.692;2022-11-21T09:23:43;100361.34;;;6.44;100.00
12247;BME280;6186;52.022;4.692;2022-11-21T09:26:09;100363.00;;;6.49;100.00
12247;BME280;6186;52.022;4.692;2022-11-21T09:28:35;100341.28;;;6.46;100.00
12247;BME280;6186;52.022;4.692;2022-11-21T09:31:04;100369.75;;;6.62;100.00
12247;BME280;6186;52.022;4.692;2022-11-21T09:33:29;100364.34;;;6.73;100.00
12247;BME280;6186;52.022;4.692;2022-11-21T09:35:58;100364.25;;;6.79;100.00
12247;BME280;6186;52.022;4.692;2022-11-21T09:38:25;100362.34;;;6.87;100.00
12247;BME280;6186;52.022;4.692;2022-11-21T09:41:10;100356.13;;;6.93;100.00
12247;BME280;6186;52.022;4.692;2022-11-21T09:46:48;100354.75;;;7.19;100.00
12247;BME280;6186;52.022;4.692;2022-11-21T09:49:21;100348.38;;;7.32;100.00
12247;BME280;6186;52.022;4.692;2022-11-21T09:51:49;100353.47;;;7.41;100.00
12247;BME280;6186;52.022;4.692;2022-11-21T09:54:24;100351.63;;;7.45;100.00
12247;BME280;6186;52.022;4.692;2022-11-21T09:56:52;100347.19;;;7.48;100.00
12247;BME280;6186;52.022;4.692;2022-11-21T09:59:35;100345.22;;;7.59;100.00
12247;BME280;6186;52.022;4.692;2022-11-21T10:02:12;100335.41;;;7.69;100.00
12247;BME280;6186;52.022;4.692;2022-11-21T10:04:38;100326.50;;;7.76;100.00
12247;BME280;6186;52.022;4.692;2022-11-21T10:07:09;100320.13;;;7.88;100.00
12247;BME280;6186;52.022;4.692;2022-11-21T10:28:56;100303.34;;;8.68;100.00
12247;BME280;6186;52.022;4.692;2022-11-21T10:31:28;100301.13;;;8.85;100.00
12247;BME280;6186;52.022;4.692;2022-11-21T10:33:57;100292.69;;;9.05;100.00
12247;BME280;6186;52.022;4.692;2022-11-21T10:36:33;100287.72;;;9.26;100.00
12247;BME280;6186;52.022;4.692;2022-11-21T10:39:06;100285.91;;;9.58;100.00
12247;BME280;6186;52.022;4.692;2022-11-21T10:41:59;100280.00;;;9.79;100.00
12247;BME280;6186;52.022;4.692;2022-11-21T10:44:28;100280.16;;;10.02;100.00
12247;BME280;6186;52.022;4.692;2022-11-21T10:47:19;100275.81;;;10.28;100.00
12247;BME280;6186;52.022;4.692;2022-11-21T10:52:48;100270.84;;;10.19;100.00
12247;BME280;6186;52.022;4.692;2022-11-21T10:55:15;100272.44;;;9.97;100.00
12247;BME280;6186;52.022;4.692;2022-11-21T10:57:48;100266.84;;;9.79;100.00
12247;BME280;6186;52.022;4.692;2022-11-21T11:05:26;100246.72;;;9.52;100.00
12247;BME280;6186;52.022;4.692;2022-11-21T11:08:07;100248.19;;;9.60;100.00
12247;BME280;6186;52.022;4.692;2022-11-21T11:10:44;100256.00;;;9.63;100.00
12247;BME280;6186;52.022;4.692;2022-11-21T11:13:18;100251.53;;;9.65;100.00
12247;BME280;6186;52.022;4.692;2022-11-21T11:18:36;100231.03;;;9.76;100.00
12247;BME280;6186;52.022;4.692;2022-11-21T11:21:21;100234.84;;;9.94;100.00
12247;BME280;6186;52.022;4.692;2022-11-21T11:23:52;100227.69;;;9.99;100.00
12247;BME280;6186;52.022;4.692;2022-11-21T11:26:29;100221.13;;;10.12;100.00
12247;BME280;6186;52.022;4.692;2022-11-21T11:29:18;100213.22;;;10.38;100.00
12247;BME280;6186;52.022;4.692;2022-11-21T11:31:59;100216.25;;;10.52;100.00
12247;BME280;6186;52.022;4.692;2022-11-21T11:48:44;100175.00;;;14.35;100.00
12247;BME280;6186;52.022;4.692;2022-11-21T11:51:22;100167.38;;;14.63;100.00
12247;BME280;6186;52.022;4.692;2022-11-21T11:54:01;100153.03;;;14.82;100.00
12247;BME280;6186;52.022;4.692;2022-11-21T11:56:32;100148.69;;;14.81;100.00
12247;BME280;6186;52.022;4.692;2022-11-21T11:59:20;100140.63;;;14.67;100.00
12247;BME280;6186;52.022;4.692;2022-11-21T12:01:59;100132.28;;;14.58;100.00
12247;BME280;6186;52.022;4.692;2022-11-21T12:04:28;100129.28;;;14.31;100.00
12247;BME280;6186;52.022;4.692;2022-11-21T12:12:34;100117.91;;;14.12;100.00
12247;BME280;6186;52.022;4.692;2022-11-21T12:15:23;100102.66;;;14.00;100.00
12247;BME280;6186;52.022;4.692;2022-11-21T12:23:19;100080.44;;;13.15;100.00
12247;BME280;6186;52.022;4.692;2022-11-21T12:28:47;100071.06;;;12.53;100.00
12247;BME280;6186;52.022;4.692;2022-11-21T12:43:38;100041.38;;;11.69;100.00
12247;BME280;6186;52.022;4.692;2022-11-21T12:46:27;100024.44;;;11.32;100.00
12247;BME280;6186;52.022;4.692;2022-11-21T12:49:34;100017.66;;;11.05;100.00
12247;BME280;6186;52.022;4.692;2022-11-21T12:52:47;100015.09;;;10.82;100.00
12247;BME280;6186;52.022;4.692;2022-11-21T13:00:51;99993.66;;;10.47;100.00
12247;BME280;6186;52.022;4.692;2022-11-21T13:03:34;99978.38;;;10.34;100.00
12247;BME280;6186;52.022;4.692;2022-11-21T13:06:03;99982.97;;;10.28;100.00
12247;BME280;6186;52.022;4.692;2022-11-21T13:08:34;99980.66;;;10.20;100.00
12247;BME280;6186;52.022;4.692;2022-11-21T13:17:25;99946.47;;;9.96;100.00
12247;BME280;6186;52.022;4.692;2022-11-21T13:25:51;99894.91;;;9.93;100.00
12247;BME280;6186;52.022;4.692;2022-11-21T13:30:56;99912.53;;;9.90;100.00
12247;BME280;6186;52.022;4.692;2022-11-21T13:44:45;99899.47;;;9.65;100.00
12247;BME280;6186;52.022;4.692;2022-11-21T13:47:29;99899.63;;;9.61;100.00
12247;BME280;6186;52.022;4.692;2022-11-21T13:53:14;99879.84;;;9.50;100.00
12247;BME280;6186;52.022;4.692;2022-11-21T13:55:55;99887.03;;;9.45;100.00
12247;BME280;6186;52.022;4.692;2022-11-21T14:01:04;99871.63;;;9.36;100.00
12247;BME280;6186;52.022;4.692;2022-11-21T14:06:38;99868.50;;;9.25;100.00
12247;BME280;6186;52.022;4.692;2022-11-21T14:11:58;99856.56;;;9.17;100.00
12247;BME280;6186;52.022;4.692;2022-11-21T14:19:44;99847.94;;;9.13;100.00
12247;BME280;6186;52.022;4.692;2022-11-21T14:22:25;99845.38;;;9.12;100.00
12247;BME280;6186;52.022;4.692;2022-11-21T14:24:52;99832.28;;;9.10;100.00
12247;BME280;6186;52.022;4.692;2022-11-21T14:27:28;99835.81;;;9.09;100.00
12247;BME280;6186;52.022;4.692;2022-11-21T14:29:55;99822.84;;;9.05;100.00
12247;BME280;6186;52.022;4.692;2022-11-21T14:32:27;99820.19;;;9.06;100.00
12247;BME280;6186;52.022;4.692;2022-11-21T14:35:07;99812.47;;;9.02;100.00
12247;BME280;6186;52.022;4.692;2022-11-21T14:37:33;99812.63;;;8.97;100.00
12247;BME280;6186;52.022;4.692;2022-11-21T14:39:58;99817.84;;;8.99;100.00
12247;BME280;6186;52.022;4.692;2022-11-21T14:42:34;99801.50;;;8.91;100.00
12247;BME280;6186;52.022;4.692;2022-11-21T14:45:20;99815.44;;;8.93;100.00
12247;BME280;6186;52.022;4.692;2022-11-21T14:47:50;99808.63;;;8.87;100.00
12247;BME280;6186;52.022;4.692;2022-11-21T14:50:28;99807.03;;;8.83;100.00
12247;BME280;6186;52.022;4.692;2022-11-21T14:52:55;99793.31;;;8.75;100.00
12247;BME280;6186;52.022;4.692;2022-11-21T14:55:28;99801.09;;;8.77;100.00
12247;BME280;6186;52.022;4.692;2022-11-21T14:57:55;99782.19;;;8.69;100.00
12247;BME280;6186;52.022;4.692;2022-11-21T15:00:25;99785.63;;;8.69;100.00
12247;BME280;6186;52.022;4.692;2022-11-21T15:02:53;99778.78;;;8.65;100.00
12247;BME280;6186;52.022;4.692;2022-11-21T15:05:20;99782.22;;;8.67;100.00
12247;BME280;6186;52.022;4.692;2022-11-21T15:07:47;99768.25;;;8.67;100.00
12247;BME280;6186;52.022;4.692;2022-11-21T15:10:14;99770.97;;;8.64;100.00
12247;BME280;6186;52.022;4.692;2022-11-21T15:13:15;99761.47;;;8.60;100.00
12247;BME280;6186;52.022;4.692;2022-11-21T15:15:47;99747.56;;;8.57;100.00
12247;BME280;6186;52.022;4.692;2022-11-21T15:18:24;99742.28;;;8.59;100.00